Time;durP1;ratioP1;P1;durP2;ratioP2;P2;SDS_P1;SDS_P2;PMS_P1;PMS_P2;Temp;Humidity;BMP_temperature;BMP_pressure;BME280_temperature;BME280_humidity;BME280_pressure;Samples;Min_cycle;Max_cycle;Signal;HPM_P1;HPM_P2
2023/05/15 00:02:25;;;;;;;21.35;15.70;;;;;;;12.37;91.54;101332.31;5120321;27;20028;-71
2023/05/15 00:04:52;;;;;;;24.13;15.07;;;;;;;12.36;91.70;101327.09;5134600;27;20043;-71
2023/05/15 00:07:20;;;;;;;20.73;14.25;;;;;;;12.35;91.86;101323.59;5113862;27;20044;-73
2023/05/15 00:09:47;;;;;;;24.75;15.60;;;;;;;12.32;92.33;101318.38;5123468;27;20066;-72
2023/05/15 00:12:14;;;;;;;22.45;14.57;;;;;;;12.31;92.33;101327.22;5115283;27;20047;-71
2023/05/15 00:14:41;;;;;;;25.88;15.55;;;;;;;12.28;93.03;101316.72;5117849;27;20077;-71
2023/05/15 00:17:08;;;;;;;24.65;15.68;;;;;;;12.26;93.54;101326.47;5123778;27;20040;-71
2023/05/15 00:19:35;;;;;;;22.88;15.60;;;;;;;12.25;93.75;101330.06;5125566;27;20032;-71
2023/05/15 00:22:03;;;;;;;24.63;15.35;;;;;;;12.24;94.03;101328.31;5117424;27;20143;-71
2023/05/15 00:24:30;;;;;;;21.77;14.98;;;;;;;12.20;93.99;101321.38;5124859;27;20142;-71
2023/05/15 00:26:59;;;;;;;26.20;16.15;;;;;;;12.17;93.88;101324.09;5111161;27;20097;-71
2023/05/15 00:29:26;;;;;;;22.63;16.02;;;;;;;12.15;93.88;101318.88;5112091;27;20051;-71
2023/05/15 00:31:53;;;;;;;27.02;15.88;;;;;;;12.14;94.27;101313.66;5121711;27;20047;-71
2023/05/15 00:34:24;;;;;;;22.42;15.82;;;;;;;12.09;93.94;101312.00;5110587;27;20044;-71
2023/05/15 00:36:51;;;;;;;23.52;15.18;;;;;;;12.07;93.98;101305.88;5113269;27;20115;-71
2023/05/15 00:39:18;;;;;;;20.42;15.07;;;;;;;12.04;93.99;101310.41;5116117;27;20047;-71
2023/05/15 00:41:50;;;;;;;23.23;15.40;;;;;;;12.02;93.96;101301.63;5113774;27;20040;-71
2023/05/15 00:44:21;;;;;;;21.48;15.23;;;;;;;12.01;94.24;101303.44;5117759;27;20596;-71
2023/05/15 00:46:50;;;;;;;23.90;14.93;;;;;;;11.98;94.27;101303.50;5111296;27;20036;-72
2023/05/15 00:49:20;;;;;;;24.75;15.60;;;;;;;11.99;94.11;101307.88;5106637;27;20993;-72
2023/05/15 00:51:48;;;;;;;25.50;15.05;;;;;;;11.95;94.24;101312.38;5116094;27;20042;-72
2023/05/15 00:54:16;;;;;;;25.08;15.43;;;;;;;11.94;93.86;101305.34;5120255;27;20039;-71
2023/05/15 00:56:44;;;;;;;25.20;15.45;;;;;;;11.90;93.79;101301.06;5137742;27;20040;-72
2023/05/15 00:59:12;;;;;;;21.98;14.60;;;;;;;11.88;93.44;101292.31;5119785;27;20039;-71
2023/05/15 01:01:40;;;;;;;21.73;14.52;;;;;;;11.85;93.18;101302.97;5137410;27;20032;-72
2023/05/15 01:04:10;;;;;;;20.80;14.98;;;;;;;11.84;92.94;101292.47;5107652;27;20054;-71
2023/05/15 01:06:37;;;;;;;22.05;13.90;;;;;;;11.80;92.82;101287.25;5120342;27;20506;-71
2023/05/15 01:09:07;;;;;;;26.48;14.50;;;;;;;11.78;92.94;101278.50;5124901;27;20547;-71
2023/05/15 01:11:37;;;;;;;22.30;14.60;;;;;;;11.77;92.53;101286.47;5112226;27;20157;-72
2023/05/15 01:14:07;;;;;;;23.15;14.88;;;;;;;11.77;92.62;101286.47;5119587;27;20071;-71
2023/05/15 01:16:35;;;;;;;22.80;15.68;;;;;;;11.73;92.61;101280.41;5128885;27;20044;-72
2023/05/15 01:19:03;;;;;;;20.02;14.65;;;;;;;11.73;92.85;101283.06;5138083;27;20059;-71
2023/05/15 01:22:09;;;;;;;21.00;14.98;;;;;;;11.72;92.83;101283.06;5109274;27;20090;-71
2023/05/15 01:25:09;;;;;;;26.52;15.05;;;;;;;11.69;92.91;101289.31;5126900;27;20503;-71
2023/05/15 01:27:49;;;;;;;28.55;15.57;;;;;;;11.68;93.22;101287.59;5129458;27;20040;-71
2023/05/15 01:30:23;;;;;;;27.33;15.98;;;;;;;11.67;93.24;101299.06;5111162;27;20521;-71
2023/05/15 01:33:02;;;;;;;;;;;;;;;11.62;93.24;101282.50;5120373;27;20046;-71
2023/05/15 01:35:48;;;;;;;23.20;15.27;;;;;;;11.57;93.30;101290.53;5124130;27;20461;-71
2023/05/15 01:38:32;;;;;;;23.10;15.50;;;;;;;11.55;93.75;101300.25;5123167;27;20127;-71
2023/05/15 01:41:50;;;;;;;23.23;15.82;;;;;;;11.49;93.95;101297.81;5113516;27;20036;-71
2023/05/15 01:44:35;;;;;;;26.10;16.05;;;;;;;11.45;94.51;101293.50;5124634;27;20737;-71
2023/05/15 01:47:12;;;;;;;22.83;16.02;;;;;;;11.43;94.59;101293.56;5129973;27;20089;-71
2023/05/15 01:49:44;;;;;;;27.55;16.42;;;;;;;11.41;94.52;101289.19;5114358;27;20113;-68
2023/05/15 01:52:29;;;;;;;25.60;17.23;;;;;;;11.38;94.45;101284.88;5161231;27;20031;-71
2023/05/15 01:54:58;;;;;;;25.17;16.73;;;;;;;11.39;94.41;101283.97;5126994;27;20253;-71
2023/05/15 01:57:29;;;;;;;24.25;15.50;;;;;;;11.40;94.74;101283.06;5117738;27;20530;-71
2023/05/15 01:59:58;;;;;;;27.02;15.88;;;;;;;11.40;94.56;101282.19;5109631;27;20039;-71
2023/05/15 02:02:28;;;;;;;24.67;15.52;;;;;;;11.40;94.81;101279.53;5106999;27;20036;-71
2023/05/15 02:04:56;;;;;;;26.35;16.25;;;;;;;11.36;94.67;101285.81;5119334;27;20192;-71
2023/05/15 02:07:25;;;;;;;24.88;15.15;;;;;;;11.34;94.99;101288.53;5127968;27;20040;-71
2023/05/15 02:09:53;;;;;;;26.88;15.98;;;;;;;11.33;95.11;101282.34;5114300;27;20032;-72
2023/05/15 02:12:22;;;;;;;32.15;15.95;;;;;;;11.28;95.15;101281.63;5135554;27;20519;-71
2023/05/15 02:14:51;;;;;;;28.42;15.70;;;;;;;11.26;95.39;101279.91;5126406;27;20089;-71
2023/05/15 02:17:21;;;;;;;26.52;16.52;;;;;;;11.25;95.42;101279.06;5117533;27;20040;-70
2023/05/15 02:19:49;;;;;;;29.30;16.70;;;;;;;11.22;95.40;101286.19;5129893;27;20039;-71
2023/05/15 02:22:16;;;;;;;22.83;15.90;;;;;;;11.18;95.36;101281.00;5120292;27;20036;-71
2023/05/15 02:24:43;;;;;;;25.48;16.48;;;;;;;11.16;95.12;101277.50;5126192;27;20040;-71
2023/05/15 02:27:26;;;;;;;27.17;16.23;;;;;;;11.17;95.85;101276.59;5112390;27;20038;-71
2023/05/15 02:30:19;;;;;;;28.73;16.60;;;;;;;11.17;96.44;101281.03;5107854;27;20866;-71
2023/05/15 02:33:22;;;;;;;29.23;15.98;;;;;;;11.13;96.63;101274.97;5118618;27;20039;-71
2023/05/15 02:36:03;;;;;;;39.88;17.27;;;;;;;11.12;96.90;101282.91;5104273;27;20097;-71
2023/05/15 02:38:39;;;;;;;29.65;16.65;;;;;;;11.09;96.95;101283.00;5109559;27;20044;-70
2023/05/15 02:41:08;;;;;;;26.95;16.25;;;;;;;11.08;97.19;101283.91;5126131;27;20121;-71
2023/05/15 02:43:38;;;;;;;27.75;16.92;;;;;;;11.07;97.28;101284.81;5102631;27;20036;-71
2023/05/15 02:46:07;;;;;;;27.40;17.10;;;;;;;11.02;97.33;101277.88;5126243;27;20118;-71
2023/05/15 02:48:39;;;;;;;34.03;17.33;;;;;;;11.02;97.39;101282.28;5125161;27;20485;-70
2023/05/15 02:51:07;;;;;;;27.65;17.00;;;;;;;11.01;97.43;101285.84;5108309;27;20044;-71
2023/05/15 02:53:42;;;;;;;27.98;17.27;;;;;;;10.98;97.09;101281.50;5118151;27;20942;-71
2023/05/15 02:56:09;;;;;;;27.02;16.17;;;;;;;10.96;97.29;101277.16;5125297;27;20048;-71
2023/05/15 02:58:38;;;;;;;25.48;17.08;;;;;;;10.91;97.14;101279.91;5111882;27;21023;-71
2023/05/15 03:01:05;;;;;;;26.25;17.63;;;;;;;10.86;96.87;101271.25;5125270;27;20044;-71
2023/05/15 03:03:32;;;;;;;28.15;17.83;;;;;;;10.83;97.06;101266.03;5123278;27;20039;-71
2023/05/15 03:06:00;;;;;;;27.48;17.33;;;;;;;10.84;97.64;101268.63;5143267;27;20043;-71
2023/05/15 03:08:27;;;;;;;32.15;18.40;;;;;;;10.82;97.74;101266.94;5122987;27;20036;-71
2023/05/15 03:10:54;;;;;;;31.25;17.95;;;;;;;10.83;97.86;101258.13;5110394;27;20040;-71
2023/05/15 03:13:21;;;;;;;33.67;18.92;;;;;;;10.82;97.96;101259.03;5120623;27;20621;-71
2023/05/15 03:15:48;;;;;;;33.80;18.75;;;;;;;10.81;97.95;101262.56;5126565;27;20423;-71
2023/05/15 03:18:17;;;;;;;26.85;17.92;;;;;;;10.81;98.73;101263.47;5126887;27;20046;-71
2023/05/15 03:20:47;;;;;;;29.58;19.50;;;;;;;10.79;98.75;101264.38;5112518;27;20127;-71
2023/05/15 03:23:15;;;;;;;28.67;18.92;;;;;;;10.79;99.11;101267.00;5140123;27;20115;-71
2023/05/15 03:25:42;;;;;;;29.20;18.58;;;;;;;10.77;99.11;101272.34;5131774;27;20045;-71
2023/05/15 03:28:09;;;;;;;34.13;18.23;;;;;;;10.77;99.51;101266.22;5119654;27;20036;-71
2023/05/15 03:30:36;;;;;;;31.17;20.25;;;;;;;10.79;99.53;101262.63;5141679;27;20031;-71
2023/05/15 03:33:04;;;;;;;34.33;18.48;;;;;;;10.79;99.49;101264.38;5120558;27;20032;-71
2023/05/15 03:35:31;;;;;;;29.65;19.77;;;;;;;10.78;99.53;101265.31;5116858;27;20127;-71
2023/05/15 03:37:58;;;;;;;31.05;19.33;;;;;;;10.78;99.77;101266.16;5131542;27;20032;-71
2023/05/15 03:40:25;;;;;;;33.15;19.65;;;;;;;10.81;99.90;101265.22;5123035;27;20043;-71
2023/05/15 03:42:52;;;;;;;35.97;20.92;;;;;;;10.79;99.54;101262.63;5112432;27;20155;-71
2023/05/15 03:45:20;;;;;;;34.42;20.50;;;;;;;10.81;99.75;101263.47;5133332;27;20036;-71
2023/05/15 03:47:48;;;;;;;40.60;22.23;;;;;;;10.84;99.91;101252.81;5126290;27;20040;-71
2023/05/15 03:50:15;;;;;;;35.00;22.25;;;;;;;10.88;99.85;101259.75;5115400;27;20563;-71
2023/05/15 03:52:42;;;;;;;37.42;21.90;;;;;;;10.89;99.93;101257.97;5131636;27;20067;-71
2023/05/15 03:55:09;;;;;;;43.97;21.95;;;;;;;10.91;99.98;101260.59;5126222;27;20911;-71
2023/05/15 03:57:36;;;;;;;41.83;23.88;;;;;;;10.97;99.86;101263.94;5108435;27;20032;-71
2023/05/15 04:00:08;;;;;;;41.88;24.10;;;;;;;11.03;99.84;101271.69;5113769;27;20042;-71
2023/05/15 04:02:39;;;;;;;48.42;25.60;;;;;;;11.02;99.33;101277.00;5114464;27;20610;-71
2023/05/15 04:05:08;;;;;;;45.58;24.38;;;;;;;11.03;99.49;101266.41;5125816;27;20044;-71
2023/05/15 04:07:36;;;;;;;41.83;23.42;;;;;;;11.08;99.27;101274.22;5122103;27;20067;-71
2023/05/15 04:10:04;;;;;;;39.50;22.48;;;;;;;11.11;98.44;101276.78;5126630;27;20134;-71
2023/05/15 04:12:34;;;;;;;40.28;22.70;;;;;;;11.06;97.53;101267.25;5128082;27;20032;-71
2023/05/15 04:15:22;;;;;;;42.80;23.75;;;;;;;11.07;97.36;101283.03;5123657;27;20538;-71
2023/05/15 04:17:52;;;;;;;41.03;23.80;;;;;;;11.07;97.07;101285.66;5106455;27;20123;-72
2023/05/15 04:20:23;;;;;;;46.05;24.67;;;;;;;11.07;97.10;101276.91;5118308;27;20052;-71
2023/05/15 04:22:51;;;;;;;44.15;24.90;;;;;;;11.08;97.31;101290.03;5131699;27;20483;-71
2023/05/15 04:25:19;;;;;;;53.20;25.13;;;;;;;11.10;97.11;101284.72;5105230;27;20532;-71
2023/05/15 04:27:46;;;;;;;61.15;25.55;;;;;;;11.11;96.88;101278.53;5110357;27;20031;-71
2023/05/15 04:30:13;;;;;;;43.92;24.45;;;;;;;11.13;96.94;101285.53;5123419;27;20040;-72
2023/05/15 04:32:43;;;;;;;53.70;24.92;;;;;;;11.19;96.66;101276.59;5119885;27;20044;-71
2023/05/15 04:35:12;;;;;;;42.33;23.42;;;;;;;11.22;96.38;101283.56;5124097;27;20085;-71
2023/05/15 04:37:44;;;;;;;41.42;23.23;;;;;;;11.22;95.88;101281.78;5122308;27;20652;-71
2023/05/15 04:40:13;;;;;;;42.13;23.48;;;;;;;11.25;95.81;101286.97;5123191;27;20040;-71
2023/05/15 04:42:41;;;;;;;43.63;22.33;;;;;;;11.28;95.47;101292.19;5121878;27;20891;-70
2023/05/15 04:45:08;;;;;;;47.40;22.08;;;;;;;11.33;95.12;101289.44;5118043;27;20036;-71
2023/05/15 04:47:36;;;;;;;38.85;21.17;;;;;;;11.35;94.68;101287.59;5135443;27;20838;-71
2023/05/15 04:50:06;;;;;;;45.03;22.42;;;;;;;11.39;94.41;101288.41;5115186;27;20993;-71
2023/05/15 04:52:33;;;;;;;39.75;20.88;;;;;;;11.41;94.21;101287.44;5121284;27;20028;-70
2023/05/15 04:55:00;;;;;;;40.92;21.35;;;;;;;11.46;93.81;101288.16;5124919;27;20906;-70
2023/05/15 04:57:29;;;;;;;42.40;21.20;;;;;;;11.48;93.68;101288.16;5143302;27;20074;-71
2023/05/15 04:59:59;;;;;;;48.90;22.60;;;;;;;11.53;93.16;101285.38;5128697;27;20055;-69
2023/05/15 05:02:26;;;;;;;38.67;20.80;;;;;;;11.59;92.93;101283.44;5127238;27;20051;-71
2023/05/15 05:04:56;;;;;;;37.50;19.88;;;;;;;11.61;92.74;101286.03;5123962;27;20055;-65
2023/05/15 05:07:23;;;;;;;33.35;20.13;;;;;;;11.69;92.19;101291.97;5128141;27;20040;-69
2023/05/15 05:09:50;;;;;;;29.65;18.38;;;;;;;11.77;91.48;101297.03;5126651;27;20059;-69
2023/05/15 05:12:17;;;;;;;33.30;18.70;;;;;;;11.85;90.59;101302.13;5123882;27;20035;-70
2023/05/15 05:14:44;;;;;;;31.95;19.75;;;;;;;12.11;90.15;101309.28;5140738;27;20035;-70
2023/05/15 05:17:11;;;;;;;30.33;17.95;;;;;;;12.75;88.11;101308.25;5127764;27;20040;-72
2023/05/15 05:19:39;;;;;;;33.85;18.48;;;;;;;12.93;87.05;101313.84;5118069;27;20040;-71
2023/05/15 05:22:06;;;;;;;33.28;18.77;;;;;;;12.86;87.05;101314.06;5118224;27;20040;-70
2023/05/15 05:24:37;;;;;;;33.83;17.92;;;;;;;12.88;87.07;101308.72;5136273;27;20039;-72
2023/05/15 05:27:04;;;;;;;40.50;19.10;;;;;;;13.04;86.51;101312.59;5152254;27;20040;-70
2023/05/15 05:29:31;;;;;;;31.13;17.23;;;;;;;13.68;84.04;101321.06;5144631;27;20543;-70
2023/05/15 05:31:58;;;;;;;29.45;17.60;;;;;;;13.97;81.38;101322.66;5114329;27;20079;-69
2023/05/15 05:34:25;;;;;;;26.92;18.27;;;;;;;13.80;81.20;101314.44;5128585;27;20031;-70
2023/05/15 05:36:53;;;;;;;30.40;17.63;;;;;;;13.48;82.56;101321.78;5127032;27;20050;-70
2023/05/15 05:39:20;;;;;;;32.30;19.38;;;;;;;13.26;83.39;101326.88;5125712;27;20047;-70
2023/05/15 05:41:47;;;;;;;37.03;19.13;;;;;;;13.03;84.13;101323.22;5125041;27;20040;-70
2023/05/15 05:44:14;;;;;;;34.90;19.58;;;;;;;12.80;84.92;101323.97;5128385;27;20035;-70
2023/05/15 05:46:41;;;;;;;32.65;19.00;;;;;;;12.63;85.72;101327.16;5128991;27;20043;-69
2023/05/15 05:49:08;;;;;;;28.42;18.27;;;;;;;12.47;86.21;101325.00;5122822;27;20384;-70
2023/05/15 05:51:38;;;;;;;30.60;18.70;;;;;;;12.36;86.70;101316.50;5128937;27;20089;-70
2023/05/15 05:54:05;;;;;;;33.53;18.73;;;;;;;12.37;86.90;101323.53;5129197;27;20036;-69
2023/05/15 05:56:32;;;;;;;33.88;18.65;;;;;;;12.44;86.91;101333.00;5123087;27;20064;-70
2023/05/15 05:59:01;;;;;;;33.65;18.50;;;;;;;12.48;85.80;101334.66;5109165;28;20044;-70
2023/05/15 06:01:28;;;;;;;29.70;17.15;;;;;;;12.51;84.36;101337.22;5124008;27;20040;-70
2023/05/15 06:03:56;;;;;;;31.08;18.70;;;;;;;12.62;83.27;101336.88;5128360;27;20078;-69
2023/05/15 06:06:23;;;;;;;31.73;18.23;;;;;;;13.01;83.12;101339.16;5144327;27;20478;-70
2023/05/15 06:08:50;;;;;;;34.35;19.48;;;;;;;13.18;82.47;101327.13;5132057;27;20040;-69
2023/05/15 06:11:20;;;;;;;40.53;20.20;;;;;;;13.25;80.77;101331.34;5125633;27;20047;-70
2023/05/15 06:13:50;;;;;;;31.38;17.77;;;;;;;13.17;80.11;101336.88;5125109;27;20028;-70
2023/05/15 06:16:17;;;;;;;31.00;18.30;;;;;;;13.03;78.44;101341.75;5117003;27;20040;-69
2023/05/15 06:18:44;;;;;;;33.65;20.40;;;;;;;12.98;79.17;101343.69;5144895;27;20138;-69
2023/05/15 06:21:11;;;;;;;37.17;21.02;;;;;;;13.04;79.28;101336.44;5124369;27;20039;-70
2023/05/15 06:23:38;;;;;;;45.22;21.23;;;;;;;13.12;78.75;101335.28;5128116;27;20075;-70
2023/05/15 06:26:05;;;;;;;41.95;21.88;;;;;;;13.25;78.70;101336.63;5130326;27;20040;-69
2023/05/15 06:28:32;;;;;;;39.70;21.25;;;;;;;13.35;77.72;101335.41;5128417;27;20075;-69
2023/05/15 06:30:59;;;;;;;38.33;21.60;;;;;;;13.43;76.97;101334.28;5127245;27;20507;-69
2023/05/15 06:33:26;;;;;;;34.90;21.75;;;;;;;13.41;76.95;101333.47;5112258;27;20115;-69
2023/05/15 06:35:53;;;;;;;40.60;22.23;;;;;;;13.51;76.67;101327.81;5147180;27;20032;-69
2023/05/15 06:38:20;;;;;;;42.15;22.58;;;;;;;13.60;76.61;101334.56;5138287;27;20047;-70
2023/05/15 06:40:47;;;;;;;37.33;22.08;;;;;;;13.60;75.34;101333.72;5127430;27;20048;-69
2023/05/15 06:43:14;;;;;;;36.95;21.92;;;;;;;13.57;75.25;101326.75;5128942;27;20761;-69
2023/05/15 06:45:41;;;;;;;34.22;20.55;;;;;;;13.62;74.45;101326.59;5129208;27;20521;-69
2023/05/15 06:48:08;;;;;;;40.15;21.55;;;;;;;13.65;74.24;101335.28;5130458;27;20572;-70
2023/05/15 06:50:35;;;;;;;41.97;22.05;;;;;;;13.72;75.14;101329.75;5128614;27;20032;-69
2023/05/15 06:53:02;;;;;;;35.38;22.77;;;;;;;13.82;74.05;101326.75;5120477;27;20039;-69
2023/05/15 06:55:29;;;;;;;41.42;24.77;;;;;;;13.91;74.39;101328.16;5129832;27;20490;-69
2023/05/15 06:57:56;;;;;;;42.35;25.55;;;;;;;14.05;75.46;101337.41;5129205;27;20518;-70
2023/05/15 07:00:23;;;;;;;46.05;26.60;;;;;;;14.21;76.15;101338.56;5126196;27;20040;-69
2023/05/15 07:02:50;;;;;;;47.92;25.30;;;;;;;14.21;74.66;101341.22;5122047;27;20069;-69
2023/05/15 07:05:17;;;;;;;41.95;26.58;;;;;;;14.04;74.37;101336.53;5126391;27;20125;-69
2023/05/15 07:07:44;;;;;;;36.75;24.55;;;;;;;14.04;74.48;101338.31;5128133;27;20040;-69
2023/05/15 07:10:11;;;;;;;40.42;24.17;;;;;;;14.13;74.18;101333.56;5139118;27;20031;-69
2023/05/15 07:12:38;;;;;;;38.28;23.85;;;;;;;14.23;73.73;101330.56;5129106;27;20086;-70
2023/05/15 07:15:06;;;;;;;35.15;22.35;;;;;;;14.31;72.59;101339.09;5129276;27;20579;-69
2023/05/15 07:17:33;;;;;;;38.53;22.60;;;;;;;14.36;72.83;101337.09;5118102;27;20093;-69
2023/05/15 07:20:00;;;;;;;34.47;22.98;;;;;;;14.42;72.75;101328.06;5108917;28;20047;-69
2023/05/15 07:22:28;;;;;;;35.50;23.40;;;;;;;14.51;72.20;101332.16;5120908;27;20044;-69
2023/05/15 07:24:55;;;;;;;34.90;22.73;;;;;;;14.65;71.89;101337.75;5121435;27;20495;-69
2023/05/15 07:27:22;;;;;;;32.80;21.05;;;;;;;14.77;71.01;101335.56;5121757;27;20043;-70
2023/05/15 07:29:49;;;;;;;34.55;22.60;;;;;;;14.82;70.39;101330.97;5125461;27;20047;-69
2023/05/15 07:32:16;;;;;;;36.25;21.73;;;;;;;14.93;70.85;101334.06;5126532;27;20038;-69
2023/05/15 07:34:43;;;;;;;34.42;20.75;;;;;;;15.06;69.49;101329.94;5111980;27;20044;-70
2023/05/15 07:37:10;;;;;;;49.97;22.77;;;;;;;14.97;69.13;101325.00;5109480;27;20195;-70
2023/05/15 07:39:37;;;;;;;34.03;23.00;;;;;;;14.81;69.13;101322.13;5109307;28;20071;-70
2023/05/15 07:42:04;;;;;;;31.90;20.63;;;;;;;14.69;69.01;101322.63;5145259;27;20041;-70
2023/05/15 07:44:31;;;;;;;33.58;21.80;;;;;;;14.65;70.02;101323.63;5148928;27;20028;-70
2023/05/15 07:46:58;;;;;;;35.65;22.85;;;;;;;14.63;70.78;101325.47;5130944;27;20127;-70
2023/05/15 07:49:25;;;;;;;30.48;20.83;;;;;;;14.69;70.88;101322.63;5165567;27;20122;-70
2023/05/15 07:51:52;;;;;;;28.40;20.77;;;;;;;14.89;69.36;101320.03;5149523;27;20031;-69
2023/05/15 07:54:19;;;;;;;32.28;21.90;;;;;;;14.97;69.43;101317.03;5142711;27;20028;-70
2023/05/15 07:56:46;;;;;;;33.92;21.70;;;;;;;15.09;70.09;101322.78;5128373;27;20086;-70
2023/05/15 07:59:14;;;;;;;34.15;22.52;;;;;;;15.32;70.40;101312.06;5128543;27;20086;-70
2023/05/15 08:01:41;;;;;;;30.75;20.73;;;;;;;15.53;69.17;101325.34;5128734;27;20040;-70
2023/05/15 08:04:08;;;;;;;35.53;21.42;;;;;;;15.62;68.03;101322.28;5127621;27;20527;-70
2023/05/15 08:06:38;;;;;;;32.80;21.83;;;;;;;15.70;67.85;101319.31;5128349;27;20120;-70
2023/05/15 08:09:05;;;;;;;29.42;19.63;;;;;;;15.89;66.61;101322.00;5147505;27;20038;-70
2023/05/15 08:11:32;;;;;;;31.65;21.52;;;;;;;15.97;64.41;101321.66;5147372;27;20118;-70
2023/05/15 08:13:59;;;;;;;30.52;21.85;;;;;;;16.01;64.70;101323.28;5148603;27;20049;-70
2023/05/15 08:16:28;;;;;;;28.77;18.77;;;;;;;16.05;62.55;101324.84;5148614;27;20080;-70
2023/05/15 08:19:00;;;;;;;29.17;20.45;;;;;;;16.04;61.98;101317.78;5165753;27;20042;-70
2023/05/15 08:21:28;;;;;;;31.58;20.77;;;;;;;16.09;62.48;101322.91;5148866;27;20035;-69
2023/05/15 08:23:56;;;;;;;37.30;21.33;;;;;;;16.17;62.79;101327.88;5152206;27;20048;-70
2023/05/15 08:26:23;;;;;;;41.53;23.30;;;;;;;16.24;62.42;101316.00;5118082;27;20077;-70
2023/05/15 08:28:50;;;;;;;35.25;23.20;;;;;;;16.22;63.04;101304.59;5139825;27;20071;-70
2023/05/15 08:31:17;;;;;;;36.25;24.80;;;;;;;16.26;64.08;101304.38;5127409;27;20055;-70
2023/05/15 08:33:44;;;;;;;40.45;25.85;;;;;;;16.33;64.28;101304.09;5128501;27;20439;-70
2023/05/15 08:36:11;;;;;;;35.30;24.27;;;;;;;16.43;64.08;101300.91;5122911;27;20083;-70
2023/05/15 08:38:38;;;;;;;34.60;22.08;;;;;;;16.56;62.18;101317.16;5121416;27;20486;-70
2023/05/15 08:41:30;;;;;;;35.10;23.73;;;;;;;16.59;60.05;101302.84;5126247;27;20052;-70
2023/05/15 08:44:09;;;;;;;57.00;25.50;;;;;;;16.57;60.98;101300.25;5131610;27;20031;-70
2023/05/15 08:46:37;;;;;;;32.97;22.25;;;;;;;16.66;61.56;101301.59;5107395;28;20044;-70
2023/05/15 08:49:17;;;;;;;33.95;23.42;;;;;;;16.76;60.70;101302.88;5112482;27;20463;-70
2023/05/15 08:51:44;;;;;;;37.33;24.92;;;;;;;16.83;59.81;101295.44;5118142;27;20040;-70
2023/05/15 08:54:11;;;;;;;38.72;25.70;;;;;;;16.90;60.68;101296.88;5126635;27;20805;-70
2023/05/15 08:56:39;;;;;;;32.28;23.20;;;;;;;17.02;60.83;101295.44;5139680;27;20092;-70
2023/05/15 08:59:06;;;;;;;32.15;23.25;;;;;;;17.09;58.90;101290.66;5115684;27;20051;-70
2023/05/15 09:01:35;;;;;;;34.72;22.63;;;;;;;17.17;59.63;101283.16;5115635;27;20048;-70
2023/05/15 09:04:03;;;;;;;34.58;22.80;;;;;;;17.35;58.83;101286.66;5142859;27;20643;-70
2023/05/15 09:06:32;;;;;;;48.95;23.23;;;;;;;17.49;58.65;101288.63;5128235;27;20039;-70
2023/05/15 09:09:01;;;;;;;35.47;22.77;;;;;;;17.58;58.61;101281.06;5141993;27;20044;-70
2023/05/15 09:11:30;;;;;;;34.10;21.98;;;;;;;17.66;58.50;101282.38;5108312;27;20578;-71
2023/05/15 09:13:58;;;;;;;39.42;23.40;;;;;;;17.77;58.42;101281.81;5126046;27;20047;-70
2023/05/15 09:16:26;;;;;;;28.90;21.05;;;;;;;17.87;56.23;101279.50;5126871;27;20495;-70
2023/05/15 09:18:53;;;;;;;34.08;20.10;;;;;;;17.93;55.93;101280.97;5126195;27;20126;-70
2023/05/15 09:21:30;;;;;;;35.58;20.38;;;;;;;17.89;56.10;101282.94;5126412;27;20127;-70
2023/05/15 09:24:36;;;;;;;28.67;21.15;;;;;;;17.83;56.76;101286.81;5127215;27;20036;-70
2023/05/15 09:27:06;;;;;;;27.40;18.52;;;;;;;17.86;56.51;101296.44;5081650;28;20044;-70
2023/05/15 09:29:36;;;;;;;30.98;19.05;;;;;;;17.90;56.51;101295.34;5120952;27;20052;-70
2023/05/15 09:32:07;;;;;;;24.58;17.95;;;;;;;17.96;54.90;101296.81;5105151;28;20052;-70
2023/05/15 09:34:41;;;;;;;26.65;19.13;;;;;;;17.98;55.11;101287.81;5107026;28;20512;-70
2023/05/15 09:37:12;;;;;;;23.43;17.33;;;;;;;18.18;54.97;101293.00;5114737;27;20335;-70
2023/05/15 09:39:43;;;;;;;29.70;16.73;;;;;;;18.40;54.24;101285.53;5119497;27;20044;-70
2023/05/15 09:42:14;;;;;;;24.92;14.80;;;;;;;18.54;53.76;101289.22;5128936;27;20680;-70
2023/05/15 09:44:43;;;;;;;20.13;15.90;;;;;;;18.68;54.44;101291.09;5130113;27;20079;-70
2023/05/15 09:47:15;;;;;;;21.88;15.60;;;;;;;18.73;54.20;101289.03;5129434;27;20059;-70
2023/05/15 09:49:44;;;;;;;20.45;14.68;;;;;;;18.69;55.01;101290.13;5122987;27;20546;-71
2023/05/15 09:52:11;;;;;;;17.45;13.27;;;;;;;18.70;54.67;101292.75;5111170;27;20032;-70
2023/05/15 09:54:38;;;;;;;19.55;12.10;;;;;;;18.86;54.36;101287.38;5121757;27;20118;-70
2023/05/15 09:57:08;;;;;;;22.08;14.32;;;;;;;19.00;54.71;101289.25;5140579;27;20035;-70
2023/05/15 09:59:46;;;;;;;21.00;13.02;;;;;;;19.24;54.54;101283.41;5150935;27;20035;-70
2023/05/15 10:02:23;;;;;;;33.63;14.48;;;;;;;19.33;53.46;101282.84;5143538;27;20032;-70
2023/05/15 10:04:55;;;;;;;19.55;14.07;;;;;;;19.52;54.13;101285.25;5124674;27;20059;-71
2023/05/15 10:07:30;;;;;;;19.55;14.50;;;;;;;19.79;52.84;101275.63;5109075;27;20111;-71
2023/05/15 10:09:59;;;;;;;21.08;14.82;;;;;;;19.97;52.03;101271.81;5127201;27;20040;-70
2023/05/15 10:12:28;;;;;;;25.60;15.85;;;;;;;20.12;52.58;101264.63;5130049;27;20032;-71
2023/05/15 10:14:57;;;;;;;37.80;17.58;;;;;;;20.28;51.76;101269.88;5122039;27;20043;-71
2023/05/15 10:17:30;;;;;;;20.27;14.60;;;;;;;20.40;50.69;101267.34;5124694;27;20049;-70
2023/05/15 10:20:01;;;;;;;22.63;14.20;;;;;;;20.52;49.83;101277.28;5126273;27;20711;-71
2023/05/15 10:22:31;;;;;;;20.02;14.38;;;;;;;20.57;48.20;101276.97;5130333;27;20054;-71
2023/05/15 10:25:31;;;;;;;20.58;15.07;;;;;;;20.51;48.55;101270.19;5122609;27;20126;-70
2023/05/15 10:28:00;;;;;;;20.98;14.85;;;;;;;20.38;49.06;101272.81;5136444;27;20036;-71
2023/05/15 10:30:30;;;;;;;36.03;15.57;;;;;;;20.28;49.85;101272.53;5150344;27;20031;-71
2023/05/15 10:32:59;;;;;;;40.15;16.23;;;;;;;20.19;49.29;101283.00;5129745;27;20952;-71
2023/05/15 10:35:27;;;;;;;23.98;16.13;;;;;;;20.26;50.17;101271.78;5127141;27;20085;-71
2023/05/15 10:37:56;;;;;;;33.20;15.70;;;;;;;20.44;49.40;101271.56;5115558;27;20066;-71
2023/05/15 10:40:23;;;;;;;27.63;16.13;;;;;;;20.58;49.48;101267.97;5127432;27;20043;-71
2023/05/15 10:42:54;;;;;;;23.42;17.63;;;;;;;20.56;50.12;101270.72;5125499;27;20127;-71
2023/05/15 10:45:21;;;;;;;26.23;17.30;;;;;;;20.41;50.16;101275.28;5129861;27;20036;-71
2023/05/15 10:47:50;;;;;;;28.73;19.15;;;;;;;20.20;50.26;101277.53;5129543;27;20639;-70
2023/05/15 10:50:18;;;;;;;29.25;17.90;;;;;;;19.99;51.24;101269.91;5125492;27;20036;-71
2023/05/15 10:52:50;;;;;;;25.98;16.80;;;;;;;19.83;51.00;101270.00;5125641;27;20048;-70
2023/05/15 10:55:18;;;;;;;25.48;17.05;;;;;;;19.76;51.08;101270.47;5113573;27;20066;-70
2023/05/15 10:57:48;;;;;;;21.77;15.57;;;;;;;19.78;50.98;101277.47;5120198;27;20043;-70
2023/05/15 11:00:21;;;;;;;20.23;15.05;;;;;;;19.82;51.10;101276.28;5145171;27;20068;-71
2023/05/15 11:02:52;;;;;;;19.83;13.88;;;;;;;19.79;49.19;101276.47;5116397;27;20080;-70
2023/05/15 11:05:19;;;;;;;17.25;13.35;;;;;;;19.76;49.66;101274.00;5109930;27;20040;-71
2023/05/15 11:08:14;;;;;;;16.13;13.00;;;;;;;19.89;49.10;101267.94;5158452;27;20035;-70
2023/05/15 11:10:43;;;;;;;16.92;12.65;;;;;;;19.89;47.83;101271.47;5120450;27;20084;-71
2023/05/15 11:13:10;;;;;;;19.15;13.32;;;;;;;19.75;48.34;101277.66;5122654;27;20038;-70
2023/05/15 11:15:44;;;;;;;22.08;13.23;;;;;;;19.75;49.47;101266.94;5153370;27;20437;-70
2023/05/15 11:18:11;;;;;;;18.13;14.18;;;;;;;19.89;49.98;101278.63;5110310;27;20556;-71
2023/05/15 11:20:42;;;;;;;19.55;15.13;;;;;;;19.96;50.85;101271.94;5120572;27;20154;-71
2023/05/15 11:23:09;;;;;;;24.55;15.88;;;;;;;19.94;50.98;101273.84;5108311;27;20032;-71